Uhrichsville, Ohio
Current Conditions -  °F | °C
As of 4:53 AM on Saturday 22 Nov 2014 (Local Time) from KPHD Reporting Station
Scattered Clouds Scattered Clouds  
Wind Chill: 17°   Ceiling: Unl
Heat Index: 17°   Visibility: 10mi
Dew Point: 11°   Wind: 3mph
Humidity: 77%   Direction: 180°S
Pressure: 30.35"   Gusts: NA
Location:  40.39°N, 81.35°W
Report Text: KPHD 220953Z AUTO 18003KT 10SM SCT050 M08/M12 A3035 RMK AO2 SLP293 T10831117
Loading
Personal Weather Stations






























Interactive Weather Map New forecast layout! Learn more

10-Day Weather Forecast

Advertisements
Track Severe Weather on mobile